createdAt,value
2023-12-16T00:02:54.839Z,9.65
2023-12-16T00:07:51.171Z,8.77
2023-12-16T00:12:47.498Z,10.73
2023-12-16T00:17:44.451Z,8.15
2023-12-16T00:22:41.332Z,10.10
2023-12-16T00:27:38.040Z,9.85
2023-12-16T00:32:34.552Z,9.65
2023-12-16T00:37:30.920Z,9.27
2023-12-16T00:42:27.281Z,9.70
2023-12-16T00:47:24.086Z,9.13
2023-12-16T00:52:20.353Z,11.35
2023-12-16T00:57:17.191Z,10.00
2023-12-16T01:02:13.458Z,9.68
2023-12-16T01:07:10.416Z,9.10
2023-12-16T01:12:06.843Z,9.10
2023-12-16T01:17:03.746Z,9.95
2023-12-16T01:22:00.277Z,8.65
2023-12-16T01:26:56.625Z,8.45
2023-12-16T01:31:52.875Z,8.82
2023-12-16T01:36:49.193Z,8.68
2023-12-16T01:41:45.473Z,7.95
2023-12-16T01:46:42.057Z,8.85
2023-12-16T01:51:38.462Z,8.07
2023-12-16T01:56:36.004Z,8.73
2023-12-16T02:01:33.026Z,8.07
2023-12-16T02:06:29.437Z,7.78
2023-12-16T02:11:25.774Z,7.57
2023-12-16T02:16:22.098Z,8.02
2023-12-16T02:21:18.353Z,8.30
2023-12-16T02:26:14.621Z,6.82
2023-12-16T02:31:11.071Z,8.60
2023-12-16T02:36:07.839Z,6.90
2023-12-16T02:41:04.334Z,7.07
2023-12-16T02:46:00.628Z,6.85
2023-12-16T02:50:56.947Z,6.55
2023-12-16T02:55:53.210Z,6.65
2023-12-16T03:00:49.567Z,5.65
2023-12-16T03:05:45.896Z,5.82
2023-12-16T03:10:42.178Z,6.18
2023-12-16T03:15:38.493Z,6.35
2023-12-16T03:20:34.731Z,5.85
2023-12-16T03:25:31.016Z,5.05
2023-12-16T03:30:27.264Z,5.65
2023-12-16T03:35:23.599Z,5.32
2023-12-16T03:40:20.030Z,5.68
2023-12-16T03:45:16.341Z,5.20
2023-12-16T03:50:12.661Z,4.30
2023-12-16T03:55:09.005Z,5.22
2023-12-16T04:00:06.231Z,4.90
2023-12-16T04:05:02.603Z,5.30
2023-12-16T04:09:59.774Z,5.05
2023-12-16T04:14:56.016Z,4.93
2023-12-16T04:19:52.942Z,4.90
2023-12-16T04:24:51.375Z,6.32
2023-12-16T04:29:47.858Z,5.03
2023-12-16T04:34:44.197Z,5.60
2023-12-16T04:39:40.526Z,5.80
2023-12-16T04:44:37.685Z,4.57
2023-12-16T04:49:34.144Z,5.53
2023-12-16T04:54:30.663Z,5.35
2023-12-16T04:59:26.934Z,5.03
2023-12-16T05:04:23.897Z,5.55
2023-12-16T05:09:20.201Z,5.32
2023-12-16T05:14:16.560Z,5.38
2023-12-16T05:19:12.923Z,4.95
2023-12-16T05:24:09.245Z,5.57
2023-12-16T05:29:05.521Z,5.57
2023-12-16T05:34:01.963Z,5.00
2023-12-16T05:38:58.302Z,5.32
2023-12-16T05:43:54.577Z,4.72
2023-12-16T05:48:50.929Z,4.88
2023-12-16T05:53:47.209Z,5.35
2023-12-16T05:58:43.475Z,4.90
2023-12-16T06:03:39.747Z,4.85
2023-12-16T06:08:36.051Z,5.00
2023-12-16T06:13:32.426Z,5.47
2023-12-16T06:18:28.887Z,5.07
2023-12-16T06:23:25.156Z,5.40
2023-12-16T06:28:21.510Z,5.05
2023-12-16T06:33:17.855Z,5.13
2023-12-16T06:38:14.115Z,5.18
2023-12-16T06:43:10.443Z,5.20
2023-12-16T06:48:06.903Z,5.38
2023-12-16T06:53:03.332Z,5.00
2023-12-16T06:57:59.697Z,5.75
2023-12-16T07:02:55.992Z,5.47
2023-12-16T07:07:52.300Z,5.10
2023-12-16T07:12:48.616Z,5.28
2023-12-16T07:17:45.246Z,5.30
2023-12-16T07:22:41.623Z,5.57
2023-12-16T07:27:38.206Z,6.10
2023-12-16T07:32:34.943Z,5.40
2023-12-16T07:37:31.292Z,5.97
2023-12-16T07:42:27.735Z,4.85
2023-12-16T07:47:24.045Z,5.35
2023-12-16T07:52:20.495Z,6.32
2023-12-16T07:57:16.860Z,6.07
2023-12-16T08:02:13.141Z,5.82
2023-12-16T08:07:09.440Z,6.60
2023-12-16T08:12:06.478Z,5.75
2023-12-16T08:17:02.766Z,6.20
2023-12-16T08:22:01.165Z,7.25
2023-12-16T08:26:57.726Z,6.60
2023-12-16T08:31:54.043Z,6.32
2023-12-16T08:36:50.473Z,6.80
2023-12-16T08:41:46.824Z,7.50
2023-12-16T08:46:43.138Z,6.60
2023-12-16T08:51:39.409Z,6.93
2023-12-16T08:56:36.003Z,6.70
2023-12-16T09:01:33.651Z,6.18
2023-12-16T09:06:30.042Z,6.72
2023-12-16T09:11:26.370Z,7.72
2023-12-16T09:16:22.681Z,7.85
2023-12-16T09:21:19.386Z,8.07
2023-12-16T09:26:15.672Z,8.77
2023-12-16T09:31:12.067Z,9.85
2023-12-16T09:36:14.982Z,9.95
2023-12-16T09:41:20.613Z,10.35
2023-12-16T09:46:18.116Z,8.93
2023-12-16T09:51:14.884Z,10.57
2023-12-16T09:56:12.155Z,11.38
2023-12-16T10:01:08.832Z,10.77
2023-12-16T10:06:06.798Z,11.52
2023-12-16T10:11:12.192Z,11.40
2023-12-16T10:16:17.377Z,11.95
2023-12-16T10:21:25.102Z,12.82
2023-12-16T10:26:22.229Z,12.95
2023-12-16T10:31:20.122Z,13.48
2023-12-16T10:36:16.757Z,14.30
2023-12-16T10:41:13.230Z,14.25
2023-12-16T10:46:10.625Z,14.90
2023-12-16T10:51:08.441Z,15.48
2023-12-16T10:56:07.885Z,14.93
2023-12-16T11:01:11.135Z,14.40
2023-12-16T11:06:24.198Z,16.33
2023-12-16T11:28:37.908Z,18.13
2023-12-16T12:51:53.498Z,26.70
2023-12-16T15:53:47.061Z,16.10
2023-12-16T15:58:17.422Z,15.18
2023-12-16T19:03:25.588Z,20.83
2023-12-16T19:08:23.424Z,21.38
2023-12-16T19:13:23.301Z,20.88
2023-12-16T19:18:19.898Z,20.88
2023-12-16T21:47:46.327Z,18.42
2023-12-16T21:52:42.740Z,17.27
2023-12-16T21:57:39.285Z,19.38
2023-12-16T22:02:36.017Z,18.35
2023-12-16T22:07:32.330Z,19.77
2023-12-16T22:12:28.746Z,19.65
2023-12-16T22:17:25.086Z,19.90
2023-12-16T22:22:21.353Z,21.38
2023-12-16T22:27:17.758Z,20.45
2023-12-16T22:32:13.998Z,21.67
2023-12-16T22:37:10.304Z,22.58
2023-12-16T22:42:06.753Z,21.70
2023-12-16T22:47:03.165Z,21.15
2023-12-16T22:51:59.534Z,19.48
2023-12-16T22:56:56.353Z,22.45
2023-12-16T23:01:52.703Z,21.60
2023-12-16T23:06:49.079Z,21.98
2023-12-16T23:11:45.400Z,22.10
2023-12-16T23:16:41.669Z,21.77
2023-12-16T23:21:45.145Z,22.92
2023-12-16T23:26:41.655Z,23.17
2023-12-16T23:31:38.265Z,23.95
2023-12-16T23:36:35.792Z,20.88
2023-12-16T23:41:32.058Z,21.48
2023-12-16T23:46:28.725Z,20.40
2023-12-16T23:51:25.089Z,22.58
2023-12-16T23:56:23.010Z,18.15
